TimeEST,TemperatureF,Dew PointF,Humidity,Sea Level PressureIn,VisibilityMPH,Wind Direction,Wind SpeedMPH,Gust SpeedMPH,PrecipitationIn,Events,Conditions,WindDirDegrees,DateUTC
12:51 AM,61.0,54.0,78,29.73,10.0,South,12.7,20.7,N/A,,Clear,190,2012-12-10 05:51:00
1:51 AM,61.0,54.0,78,29.70,10.0,South,11.5,17.3,N/A,,Scattered Clouds,190,2012-12-10 06:51:00
2:51 AM,59.0,55.0,87,29.73,10.0,NW,5.8,25.3,0.02,Rain,Light Rain,310,2012-12-10 07:51:00
3:17 AM,57.2,55.4,94,29.76,2.5,West,8.1,21.9,0.03,Rain,Heavy Rain,270,2012-12-10 08:17:00
3:25 AM,57.2,55.4,94,29.75,1.5,West,9.2,17.3,0.12,Rain,Heavy Rain,260,2012-12-10 08:25:00
3:32 AM,57.2,55.4,94,29.74,3.0,WSW,9.2,18.4,0.14,,Mist,240,2012-12-10 08:32:00
3:51 AM,57.0,55.0,93,29.72,2.5,SW,8.1,-,0.21,Rain,Heavy Rain,230,2012-12-10 08:51:00
4:02 AM,57.2,55.4,94,29.72,6.0,SW,6.9,-,0.03,Rain,Light Rain,230,2012-12-10 09:02:00
4:51 AM,-9999,-9999,N/A,29.72,-9999.0,North,-9999.0,-,0.06,,Unknown,0,2012-12-10 09:51:00
5:51 AM,-9999,-9999,N/A,29.72,-9999.0,North,-9999.0,-,N/A,,Unknown,0,2012-12-10 10:51:00
6:51 AM,57.2,55.4,94,29.68,5.0,South,4.6,-,N/A,Rain,Light Rain,170,2012-12-10 11:51:00
8:51 AM,57.2,55.4,94,29.69,10.0,SSW,8.1,-,N/A,,Clear,200,2012-12-10 13:51:00
9:51 AM,57.2,55.4,94,29.68,5.0,SSW,11.5,18.4,N/A,Rain,Light Rain,200,2012-12-10 14:51:00
10:30 AM,57.2,55.4,94,29.66,6.0,SSW,13.8,21.9,N/A,Rain,Light Rain,200,2012-12-10 15:30:00
10:58 AM,57.2,55.4,94,29.68,6.0,WSW,8.1,-,N/A,Rain,Light Rain,240,2012-12-10 15:58:00
11:51 AM,57.2,55.4,94,29.65,6.0,SW,10.4,13.8,N/A,,Overcast,220,2012-12-10 16:51:00
12:03 PM,57.2,55.4,94,29.66,6.0,SW,10.4,15.0,N/A,,Overcast,220,2012-12-10 17:03:00
12:51 PM,57.2,55.4,94,29.63,2.0,SW,10.4,17.3,N/A,Rain,Rain,220,2012-12-10 17:51:00
1:59 PM,50.0,48.2,94,29.66,4.0,NNW,4.6,-,0.00,Rain,Rain,340,2012-12-10 18:59:00
2:51 PM,48.2,46.4,93,29.64,3.0,NNW,5.8,-,N/A,,Overcast,330,2012-12-10 19:51:00
3:51 PM,46.4,44.6,93,29.67,3.0,NW,11.5,19.6,N/A,,Overcast,320,2012-12-10 20:51:00